createdAt,value
2016-08-16T00:00:20.379Z,90.5
2016-08-16T00:01:20.456Z,89.97
2016-08-16T00:02:20.428Z,89.78
2016-08-16T00:03:20.456Z,90.06
2016-08-16T00:04:20.481Z,90.54
2016-08-16T00:05:20.508Z,90.4
2016-08-16T00:06:20.527Z,90.4
2016-08-16T00:07:20.557Z,90.45
2016-08-16T00:08:20.584Z,89.97
2016-08-16T00:09:20.600Z,90.06
2016-08-16T00:10:20.626Z,89.78
2016-08-16T00:11:20.659Z,89.78
2016-08-16T00:12:20.679Z,89.78
2016-08-16T00:13:20.702Z,90.06
2016-08-16T00:14:35.652Z,90.25
2016-08-16T00:15:20.804Z,89.97
2016-08-16T00:16:20.780Z,90.21
2016-08-16T00:17:20.802Z,90.35
2016-08-16T00:18:20.830Z,90.4
2016-08-16T00:19:20.849Z,90.11
2016-08-16T00:20:20.879Z,90.06
2016-08-16T00:21:20.903Z,89.39
2016-08-16T00:22:20.937Z,89.59
2016-08-16T00:23:20.955Z,89.39
2016-08-16T00:24:20.980Z,89.01
2016-08-16T00:25:21.000Z,89.11
2016-08-16T00:26:21.023Z,89.59
2016-08-16T00:27:21.052Z,89.59
2016-08-16T00:28:21.077Z,89.68
2016-08-16T00:29:21.099Z,89.49
2016-08-16T00:31:21.149Z,89.39
2016-08-16T00:32:21.174Z,88.82
2016-08-16T00:33:21.201Z,89.01
2016-08-16T00:34:21.223Z,89.49
2016-08-16T00:35:21.245Z,89.01
2016-08-16T00:36:21.274Z,89.45
2016-08-16T00:37:21.297Z,89.35
2016-08-16T00:38:21.320Z,89.49
2016-08-16T00:39:21.347Z,89.01
2016-08-16T00:40:21.370Z,89.01
2016-08-16T00:41:21.402Z,89.11
2016-08-16T00:42:21.420Z,89.92
2016-08-16T00:43:21.461Z,89.73
2016-08-16T00:44:21.470Z,90.31
2016-08-16T00:45:21.492Z,90.02
2016-08-16T00:46:36.441Z,90.5
2016-08-16T00:47:21.550Z,90.69
2016-08-16T00:48:21.568Z,90.31
2016-08-16T00:49:21.594Z,89.83
2016-08-16T00:50:21.618Z,90.02
2016-08-16T00:51:21.645Z,89.92
2016-08-16T00:52:21.665Z,90.02
2016-08-16T00:53:21.695Z,90.02
2016-08-16T00:54:21.717Z,89.92
2016-08-16T00:55:21.743Z,90.59
2016-08-16T00:56:21.764Z,90.59
2016-08-16T00:57:21.794Z,90.59
2016-08-16T00:58:21.815Z,90.4
2016-08-16T01:00:21.865Z,89.73
2016-08-16T01:01:21.887Z,90.5
2016-08-16T01:02:36.835Z,90.02
2016-08-16T01:03:21.943Z,89.92
2016-08-16T01:04:21.959Z,90.02
2016-08-16T01:05:21.996Z,90.59
2016-08-16T01:06:22.007Z,89.92
2016-08-16T01:07:22.036Z,90.11
2016-08-16T01:08:22.058Z,90.78
2016-08-16T01:09:22.082Z,89.73
2016-08-16T01:10:22.110Z,89.73
2016-08-16T01:11:22.134Z,89.73
2016-08-16T01:12:22.159Z,90.11
2016-08-16T01:13:22.184Z,90.21
2016-08-16T01:14:22.207Z,90.21
2016-08-16T01:15:22.279Z,90.02
2016-08-16T01:16:22.255Z,90.02
2016-08-16T01:18:37.230Z,90.02
2016-08-16T01:19:22.336Z,89.54
2016-08-16T01:20:22.351Z,89.92
2016-08-16T01:21:22.378Z,89.83
2016-08-16T01:22:22.398Z,89.83
2016-08-16T01:23:22.431Z,89.92
2016-08-16T01:24:22.456Z,89.64
2016-08-16T01:25:22.523Z,89.73
2016-08-16T01:26:22.496Z,89.83
2016-08-16T01:27:22.525Z,89.83
2016-08-16T01:28:22.553Z,89.92
2016-08-16T01:29:22.572Z,89.64
2016-08-16T01:31:22.627Z,89.92
2016-08-16T01:32:22.648Z,89.73
2016-08-16T01:33:22.669Z,89.92
2016-08-16T01:34:37.619Z,90.21
2016-08-16T01:36:22.758Z,90.4
2016-08-16T01:37:22.767Z,90.59
2016-08-16T01:38:22.796Z,90.4
2016-08-16T01:39:22.820Z,89.73
2016-08-16T01:40:22.843Z,90.4
2016-08-16T01:41:22.869Z,90.59
2016-08-16T01:42:22.893Z,90.59
2016-08-16T01:43:22.916Z,90.88
2016-08-16T01:44:22.944Z,90.69
2016-08-16T01:45:24.074Z,90.69
2016-08-16T01:46:23.712Z,90.69
2016-08-16T01:47:23.015Z,90.78
2016-08-16T01:48:23.047Z,90.59
2016-08-16T01:49:37.988Z,90.88
2016-08-16T01:52:23.137Z,90.93
2016-08-16T01:53:23.164Z,91.07
2016-08-16T01:54:23.188Z,91.12
2016-08-16T01:55:23.215Z,91.26
2016-08-16T01:56:23.238Z,91.16
2016-08-16T01:57:23.262Z,91.16
2016-08-16T01:58:23.289Z,91.16
2016-08-16T01:59:23.304Z,92.07
2016-08-16T02:00:23.534Z,91.69
2016-08-16T02:01:23.358Z,91.31
2016-08-16T02:02:23.378Z,91.21
2016-08-16T02:03:23.410Z,91.07
2016-08-16T02:04:23.430Z,91.36
2016-08-16T02:06:23.480Z,90.97
2016-08-16T02:07:23.499Z,91.26
2016-08-16T02:08:23.535Z,91.26
2016-08-16T02:09:23.549Z,91.07
2016-08-16T02:10:23.579Z,90.97
2016-08-16T02:11:23.598Z,91.07
2016-08-16T02:12:23.627Z,91.36
2016-08-16T02:13:23.650Z,91.16
2016-08-16T02:14:23.675Z,90.4
2016-08-16T02:15:23.699Z,90.69
2016-08-16T02:16:23.724Z,91.36
2016-08-16T02:17:23.744Z,91.02
2016-08-16T02:18:23.776Z,90.97
2016-08-16T02:19:23.793Z,91.55
2016-08-16T02:20:23.871Z,91.45
2016-08-16T02:21:38.767Z,91.55
2016-08-16T02:23:23.888Z,91.64
2016-08-16T02:24:23.920Z,91.69
2016-08-16T02:25:23.939Z,91.88
2016-08-16T02:26:23.964Z,91.36
2016-08-16T02:27:23.991Z,91.26
2016-08-16T02:28:24.020Z,91.16
2016-08-16T02:29:24.043Z,90.97
2016-08-16T02:30:24.061Z,91.83
2016-08-16T02:32:24.417Z,91.78
2016-08-16T02:33:24.142Z,91.21
2016-08-16T02:34:24.161Z,91.26
2016-08-16T02:35:24.189Z,91.64
2016-08-16T02:36:24.212Z,91.83
2016-08-16T02:37:39.158Z,91.55
2016-08-16T02:38:24.259Z,92.17
2016-08-16T02:39:24.282Z,92.17
2016-08-16T02:40:24.307Z,92.5
2016-08-16T02:41:24.336Z,91.98
2016-08-16T02:42:24.352Z,92.26
2016-08-16T02:43:24.382Z,92.46
2016-08-16T02:44:24.401Z,92.83
2016-08-16T02:45:24.428Z,92.65
2016-08-16T02:46:24.452Z,92.65
2016-08-16T02:47:24.480Z,92.46
2016-08-16T02:48:24.503Z,92.26
2016-08-16T02:49:24.527Z,92.74
2016-08-16T02:50:24.551Z,92.36
2016-08-16T02:51:24.576Z,92.26
2016-08-16T02:52:24.600Z,92.74
2016-08-16T02:53:39.545Z,92.31
2016-08-16T02:54:25.341Z,92.41
2016-08-16T02:55:24.678Z,92.36
2016-08-16T02:56:24.690Z,92.07
2016-08-16T02:57:24.715Z,92.46
2016-08-16T02:58:24.743Z,92.02
2016-08-16T02:59:24.764Z,91.55
2016-08-16T03:00:24.791Z,91.69
2016-08-16T03:01:24.810Z,92.26
2016-08-16T03:02:25.550Z,91.78
2016-08-16T03:03:24.863Z,92.55
2016-08-16T03:04:25.587Z,91.78
2016-08-16T03:05:24.908Z,92.07
2016-08-16T03:06:24.933Z,92.41
2016-08-16T03:07:24.958Z,91.64
2016-08-16T03:08:24.981Z,91.83
2016-08-16T03:09:39.930Z,91.93
2016-08-16T03:10:25.035Z,91.55
2016-08-16T03:11:25.055Z,92.12
2016-08-16T03:12:25.784Z,91.93
2016-08-16T03:13:25.106Z,91.83
2016-08-16T03:14:25.130Z,91.74
2016-08-16T03:15:25.154Z,91.36
2016-08-16T03:16:25.184Z,91.64
2016-08-16T03:17:25.200Z,90.97
2016-08-16T03:18:25.232Z,90.78
2016-08-16T03:19:25.250Z,90.4
2016-08-16T03:20:25.283Z,90.88
2016-08-16T03:21:25.300Z,90.88
2016-08-16T03:22:25.321Z,90.31
2016-08-16T03:23:25.346Z,90.35
2016-08-16T03:24:40.297Z,90.4
2016-08-16T03:25:25.397Z,90.54
2016-08-16T03:26:25.422Z,90.54
2016-08-16T03:27:25.446Z,89.97
2016-08-16T03:28:25.475Z,89.97
2016-08-16T03:29:25.491Z,90.16
2016-08-16T03:30:25.722Z,90.4
2016-08-16T03:31:25.590Z,90.21
2016-08-16T03:32:25.568Z,89.83
2016-08-16T03:33:25.590Z,90.78
2016-08-16T03:34:25.614Z,89.73
2016-08-16T03:35:25.638Z,90.97
2016-08-16T03:36:25.662Z,90.4
2016-08-16T03:37:25.686Z,91.16
2016-08-16T03:39:25.738Z,90.69
2016-08-16T03:40:25.766Z,91.07
2016-08-16T03:41:25.783Z,91.16
2016-08-16T03:42:25.808Z,90.59
2016-08-16T03:43:25.834Z,91.36
2016-08-16T03:44:25.857Z,91.07
2016-08-16T03:45:25.880Z,90.59
2016-08-16T03:46:25.919Z,90.59
2016-08-16T03:47:25.929Z,91.64
2016-08-16T03:48:25.953Z,90.88
2016-08-16T03:49:25.979Z,91.16
2016-08-16T03:50:26.004Z,91.26
2016-08-16T03:52:27.466Z,92.12
2016-08-16T03:53:26.085Z,92.31
2016-08-16T03:54:26.104Z,91.83
2016-08-16T03:55:26.126Z,92.12
2016-08-16T03:56:41.079Z,92.31
2016-08-16T03:57:26.173Z,92.12
2016-08-16T03:58:26.399Z,92.21
2016-08-16T03:59:26.230Z,92.12
2016-08-16T04:00:26.243Z,91.64
2016-08-16T04:01:26.272Z,91.55
2016-08-16T04:02:26.293Z,91.36
2016-08-16T04:03:26.318Z,91.64
2016-08-16T04:04:26.365Z,91.07
2016-08-16T04:05:26.369Z,90.97
2016-08-16T04:06:27.095Z,91.36
2016-08-16T04:08:26.444Z,91.36
2016-08-16T04:09:26.461Z,91.26
2016-08-16T04:10:26.484Z,91.07
2016-08-16T04:11:26.508Z,91.07
2016-08-16T04:12:41.459Z,90.69
2016-08-16T04:13:26.562Z,90.97
2016-08-16T04:14:26.589Z,90.97
2016-08-16T04:15:26.624Z,91.36
2016-08-16T04:16:26.631Z,91.07
2016-08-16T04:17:26.658Z,91.07
2016-08-16T04:18:26.679Z,91.64
2016-08-16T04:19:26.709Z,91.36
2016-08-16T04:20:26.734Z,91.26
2016-08-16T04:21:26.767Z,90.64
2016-08-16T04:22:26.779Z,90.73
2016-08-16T04:23:26.804Z,90.92
2016-08-16T04:24:26.826Z,90.25
2016-08-16T04:25:27.568Z,90.35
2016-08-16T04:26:26.883Z,90.35
2016-08-16T04:27:26.955Z,90.54
2016-08-16T04:28:41.853Z,90.16
2016-08-16T04:29:26.953Z,90.06
2016-08-16T04:30:27.023Z,90.25
2016-08-16T04:31:27.004Z,90.25
2016-08-16T04:32:27.027Z,89.59
2016-08-16T04:33:27.745Z,90.06
2016-08-16T04:34:27.070Z,90.06
2016-08-16T04:35:27.095Z,89.59
2016-08-16T04:36:27.116Z,89.59
2016-08-16T04:37:27.148Z,89.3
2016-08-16T04:38:27.173Z,89.01
2016-08-16T04:39:27.191Z,89.06
2016-08-16T04:40:27.228Z,88.87
2016-08-16T04:41:27.239Z,88.39
2016-08-16T04:42:27.269Z,88.39
2016-08-16T04:43:27.301Z,88.77
2016-08-16T04:44:42.239Z,87.62
2016-08-16T04:46:27.368Z,87.82
2016-08-16T04:47:27.387Z,88.01
2016-08-16T04:48:27.416Z,87.91
2016-08-16T04:49:27.444Z,86.86
2016-08-16T04:50:27.466Z,86.8
2016-08-16T04:51:27.490Z,86.71
2016-08-16T04:52:27.511Z,86.33
2016-08-16T04:53:27.541Z,87.05
2016-08-16T04:54:27.567Z,87.09
2016-08-16T04:55:27.593Z,86.9
2016-08-16T04:56:27.617Z,86.71
2016-08-16T04:58:27.668Z,84.84
2016-08-16T04:59:42.612Z,84.55
2016-08-16T05:00:27.712Z,84.94
2016-08-16T05:01:27.739Z,84.55
2016-08-16T05:02:27.765Z,84.17
2016-08-16T05:03:27.791Z,84.75
2016-08-16T05:04:27.819Z,84.46
2016-08-16T05:05:27.836Z,84.46
2016-08-16T05:06:27.866Z,84.17
2016-08-16T05:07:27.887Z,83.69
2016-08-16T05:08:27.919Z,84.02
2016-08-16T05:10:27.968Z,81.67
2016-08-16T05:11:28.001Z,81.48
2016-08-16T05:12:28.017Z,80.37
2016-08-16T05:13:28.041Z,77.44
2016-08-16T05:14:28.081Z,75.46
2016-08-16T05:15:28.093Z,72.95
2016-08-16T05:16:28.122Z,71.73
2016-08-16T05:17:28.146Z,71.64
2016-08-16T05:18:28.176Z,71.55
2016-08-16T05:19:28.198Z,71.41
2016-08-16T05:20:28.224Z,71.31
2016-08-16T05:21:28.252Z,70.04
2016-08-16T05:22:28.283Z,70.01
2016-08-16T05:23:28.304Z,69.27
2016-08-16T05:24:28.336Z,68.12
2016-08-16T05:25:28.358Z,67.29
2016-08-16T05:26:28.387Z,66.61
2016-08-16T05:27:28.415Z,65.88
2016-08-16T05:28:28.443Z,65.11
2016-08-16T05:29:28.522Z,63.99
2016-08-16T05:30:28.495Z,62.29
2016-08-16T05:31:43.449Z,60.1
2016-08-16T05:32:28.602Z,59.27
2016-08-16T05:33:29.282Z,58.42
2016-08-16T05:34:28.613Z,59.55
2016-08-16T05:35:28.642Z,60.97
2016-08-16T05:36:28.670Z,61.9
2016-08-16T05:37:28.697Z,62.38
2016-08-16T05:38:28.776Z,62.09
2016-08-16T05:39:28.759Z,61.8
2016-08-16T05:40:28.787Z,62.19
2016-08-16T05:41:28.814Z,62.64
2016-08-16T05:42:28.844Z,63.67
2016-08-16T05:43:28.876Z,63.95
2016-08-16T05:44:28.906Z,64.34
2016-08-16T05:45:28.933Z,64.34
2016-08-16T05:46:28.963Z,64.43
2016-08-16T05:47:43.912Z,63.86
2016-08-16T05:48:29.017Z,63.12
2016-08-16T05:50:29.072Z,61.97
2016-08-16T05:51:29.104Z,61.9
2016-08-16T05:52:29.129Z,60.39
2016-08-16T05:53:29.163Z,60.97
2016-08-16T05:54:29.188Z,60.49
2016-08-16T05:55:29.219Z,59.36
2016-08-16T05:56:29.250Z,58.88
2016-08-16T05:57:29.295Z,58.97
2016-08-16T05:58:29.309Z,60.13
2016-08-16T05:59:29.336Z,59.23
2016-08-16T06:00:29.367Z,58.01
2016-08-16T06:01:29.392Z,56.49
2016-08-16T06:02:29.423Z,55.78
2016-08-16T06:03:44.382Z,55.85
2016-08-16T06:04:29.490Z,55.27
2016-08-16T06:05:29.520Z,54.05
2016-08-16T06:06:29.552Z,52.91
2016-08-16T06:07:29.577Z,51.9
2016-08-16T06:08:29.613Z,49.82
2016-08-16T06:09:30.342Z,51.93
2016-08-16T06:10:29.678Z,54.07
2016-08-16T06:11:29.703Z,54.53
2016-08-16T06:12:29.743Z,54.98
2016-08-16T06:13:29.773Z,54.88
2016-08-16T06:14:29.803Z,55.08
2016-08-16T06:15:29.838Z,56.33
2016-08-16T06:16:29.871Z,55.76
2016-08-16T06:17:29.902Z,55.1
2016-08-16T06:18:29.934Z,53.2
2016-08-16T06:19:44.892Z,52.75
2016-08-16T06:21:30.033Z,51.97
2016-08-16T06:22:30.065Z,51.03
2016-08-16T06:23:30.101Z,50.74
2016-08-16T06:24:30.130Z,50.67
2016-08-16T06:25:30.161Z,50.67
2016-08-16T06:26:30.202Z,50.7
2016-08-16T06:27:30.231Z,50.57
2016-08-16T06:28:30.264Z,50.09
2016-08-16T06:29:30.304Z,50.18
2016-08-16T06:30:30.337Z,50.18
2016-08-16T06:31:30.369Z,50.21
2016-08-16T06:32:30.408Z,49.15
2016-08-16T06:33:30.439Z,48.01
2016-08-16T06:34:45.396Z,48.88
2016-08-16T06:35:30.501Z,49.05
2016-08-16T06:36:30.589Z,49.15
2016-08-16T06:38:30.610Z,50.21
2016-08-16T06:39:30.639Z,49.82
2016-08-16T06:40:30.677Z,49.54
2016-08-16T06:41:30.707Z,48.86
2016-08-16T06:42:30.742Z,49.17
2016-08-16T06:43:30.780Z,48.66
2016-08-16T06:44:30.808Z,48.79
2016-08-16T06:45:30.842Z,47.94
2016-08-16T06:46:30.875Z,47.09
2016-08-16T06:47:30.920Z,46.89
2016-08-16T06:48:30.948Z,46.99
2016-08-16T06:49:30.986Z,47.81
2016-08-16T06:51:31.048Z,46.51
2016-08-16T06:52:31.080Z,45.56
2016-08-16T06:53:31.119Z,46.16
2016-08-16T06:54:31.152Z,47.38
2016-08-16T06:55:31.196Z,47.72
2016-08-16T06:56:31.223Z,47.43
2016-08-16T06:57:31.259Z,46.7
2016-08-16T06:58:31.294Z,46.14
2016-08-16T06:59:31.326Z,45.1
2016-08-16T07:00:31.362Z,46.04
2016-08-16T07:01:31.397Z,46.02
2016-08-16T07:02:31.429Z,45.29
2016-08-16T07:03:31.469Z,45.65
2016-08-16T07:04:31.507Z,44.81
2016-08-16T07:05:31.541Z,43.76
2016-08-16T07:06:46.523Z,43.86
2016-08-16T07:07:31.617Z,43.86
2016-08-16T07:08:31.640Z,43.47
2016-08-16T07:09:31.677Z,43.78
2016-08-16T07:10:31.716Z,42.13
2016-08-16T07:11:31.749Z,41.59
2016-08-16T07:12:31.795Z,40.81
2016-08-16T07:13:31.820Z,40.83
2016-08-16T07:14:31.859Z,40.95
2016-08-16T07:15:31.894Z,40.34
2016-08-16T07:16:31.924Z,40.73
2016-08-16T07:17:31.958Z,40.44
2016-08-16T07:18:31.999Z,42.78
2016-08-16T07:19:32.037Z,44.1
2016-08-16T07:21:32.103Z,43.37
2016-08-16T07:22:47.068Z,42.5
2016-08-16T07:23:32.180Z,42.43
2016-08-16T07:24:32.211Z,42.15
2016-08-16T07:25:32.248Z,41.1
2016-08-16T07:26:32.280Z,41.39
2016-08-16T07:27:32.321Z,40.54
2016-08-16T07:28:32.358Z,40.17
2016-08-16T07:29:32.395Z,39.49
2016-08-16T07:30:32.428Z,41.22
2016-08-16T07:31:32.462Z,42.15
2016-08-16T07:32:32.502Z,43.18
2016-08-16T07:33:32.536Z,43.93
2016-08-16T07:34:32.568Z,43.06
2016-08-16T07:35:32.606Z,41.94
2016-08-16T07:36:32.644Z,41.94
2016-08-16T07:37:32.727Z,41.08
2016-08-16T07:38:47.640Z,40.03
2016-08-16T07:39:32.750Z,40.52
2016-08-16T07:40:32.785Z,42.13
2016-08-16T07:41:32.827Z,42.86
2016-08-16T07:42:32.857Z,43.74
2016-08-16T07:43:32.901Z,44.3
2016-08-16T07:44:32.927Z,46.22
2016-08-16T07:45:32.962Z,45.22
2016-08-16T07:46:33.004Z,44.86
2016-08-16T07:47:33.034Z,45.34
2016-08-16T07:48:33.071Z,43.74
2016-08-16T07:49:33.103Z,43.45
2016-08-16T07:50:33.142Z,43.64
2016-08-16T07:51:33.174Z,43.26
2016-08-16T07:52:33.208Z,43.45
2016-08-16T07:53:33.243Z,42.33
2016-08-16T07:54:48.211Z,41.94
2016-08-16T07:55:33.316Z,40.6
2016-08-16T07:56:33.352Z,40.33
2016-08-16T07:57:33.390Z,39.29
2016-08-16T07:58:34.129Z,39.29
2016-08-16T07:59:33.459Z,39.37
2016-08-16T08:00:33.492Z,40.79
2016-08-16T08:01:33.530Z,40.97
2016-08-16T08:02:33.567Z,40.5
2016-08-16T08:03:33.603Z,39.26
2016-08-16T08:04:33.638Z,39.47
2016-08-16T08:05:33.670Z,39.18
2016-08-16T08:06:33.706Z,38.79
2016-08-16T08:07:33.750Z,37.26
2016-08-16T08:08:33.779Z,37.27
2016-08-16T08:09:48.741Z,36.12
2016-08-16T08:10:33.861Z,36.14
2016-08-16T08:11:33.884Z,35.65
2016-08-16T08:12:33.921Z,37.37
2016-08-16T08:13:33.959Z,39.94
2016-08-16T08:14:33.992Z,41.31
2016-08-16T08:15:34.028Z,41.31
2016-08-16T08:16:34.066Z,40.75
2016-08-16T08:17:34.803Z,40.85
2016-08-16T08:18:34.136Z,41.14
2016-08-16T08:19:34.169Z,41.12
2016-08-16T08:20:34.208Z,42.65
2016-08-16T08:24:34.348Z,42.09
2016-08-16T08:25:34.382Z,42.67
2016-08-16T08:26:34.416Z,43.23
2016-08-16T08:27:34.451Z,42.72
2016-08-16T08:28:34.485Z,41.7
2016-08-16T08:29:34.515Z,40.95
2016-08-16T08:30:34.558Z,38.07
2016-08-16T08:31:34.593Z,37.26
2016-08-16T08:32:34.622Z,37.35
2016-08-16T08:33:34.656Z,36.71
2016-08-16T08:34:34.694Z,38.32
2016-08-16T08:35:34.728Z,39.04
2016-08-16T08:36:34.775Z,40.54
2016-08-16T08:37:34.849Z,41.1
2016-08-16T08:38:34.828Z,41.78
2016-08-16T08:40:34.901Z,43.55
2016-08-16T08:41:49.862Z,44.02
2016-08-16T08:42:34.971Z,43.82
2016-08-16T08:43:35.003Z,43.17
2016-08-16T08:44:35.038Z,43.46
2016-08-16T08:45:35.120Z,43.68
2016-08-16T08:46:35.106Z,42.88
2016-08-16T08:47:35.150Z,41.66
2016-08-16T08:48:35.174Z,40.71
2016-08-16T08:49:35.209Z,40.54
2016-08-16T08:50:35.248Z,40.34
2016-08-16T08:51:35.279Z,40.34
2016-08-16T08:52:35.306Z,40.73
2016-08-16T08:53:35.345Z,41.02
2016-08-16T08:54:35.379Z,41.7
2016-08-16T08:55:35.414Z,42.07
2016-08-16T08:56:35.447Z,43.87
2016-08-16T08:57:50.404Z,44.02
2016-08-16T08:58:35.518Z,44.7
2016-08-16T09:00:35.582Z,45.45
2016-08-16T09:01:35.611Z,45.47
2016-08-16T09:02:35.644Z,45.37
2016-08-16T09:03:35.686Z,44.33
2016-08-16T09:04:35.719Z,44.72
2016-08-16T09:05:35.744Z,44.5
2016-08-16T09:06:35.784Z,44.13
2016-08-16T09:07:35.814Z,45.54
2016-08-16T09:08:35.848Z,45.06
2016-08-16T09:09:35.886Z,44.31
2016-08-16T09:10:35.917Z,43.29
2016-08-16T09:11:35.953Z,44.23
2016-08-16T09:12:35.996Z,44.12
2016-08-16T09:13:50.936Z,44.12
2016-08-16T09:15:36.078Z,42.54
2016-08-16T09:16:36.113Z,42.44
2016-08-16T09:17:36.145Z,42.61
2016-08-16T09:18:36.174Z,42.59
2016-08-16T09:19:36.208Z,43
2016-08-16T09:20:36.245Z,42.9
2016-08-16T09:21:36.275Z,43.17
2016-08-16T09:22:36.304Z,42.24
2016-08-16T09:23:36.353Z,41.2
2016-08-16T09:24:36.372Z,39.37
2016-08-16T09:25:36.407Z,39.39
2016-08-16T09:26:36.444Z,39.01
2016-08-16T09:27:36.471Z,38.06
2016-08-16T09:28:36.509Z,38.07
2016-08-16T09:29:51.464Z,37.1
2016-08-16T09:30:36.575Z,38.17
2016-08-16T09:31:36.607Z,38.07
2016-08-16T09:32:36.643Z,38.54
2016-08-16T09:33:36.670Z,39.03
2016-08-16T09:34:36.705Z,39.2
2016-08-16T09:35:36.738Z,39.95
2016-08-16T09:36:36.776Z,40.61
2016-08-16T09:37:36.860Z,40.26
2016-08-16T09:38:36.857Z,38.93
2016-08-16T09:39:36.878Z,38.85
2016-08-16T09:40:36.904Z,40.46
2016-08-16T09:41:36.937Z,40.73
2016-08-16T09:42:36.978Z,42.54
2016-08-16T09:43:37.020Z,44.02
2016-08-16T09:44:51.967Z,45.16
2016-08-16T09:45:37.074Z,46.03
2016-08-16T09:46:37.104Z,47.16
2016-08-16T09:47:37.140Z,47.33
2016-08-16T09:48:37.169Z,47.26
2016-08-16T09:49:37.206Z,46.75
2016-08-16T09:50:37.238Z,45.25
2016-08-16T09:51:37.271Z,42.51
2016-08-16T09:52:37.304Z,41.17
2016-08-16T09:53:37.330Z,40.33
2016-08-16T09:54:37.368Z,39.08
2016-08-16T09:55:37.395Z,39.11
2016-08-16T09:56:37.431Z,38.71
2016-08-16T09:57:37.462Z,38.44
2016-08-16T09:58:37.495Z,39.69
2016-08-16T09:59:37.530Z,39.28
2016-08-16T10:00:37.557Z,38.81
2016-08-16T10:01:37.599Z,38.42
2016-08-16T10:02:37.627Z,38.42
2016-08-16T10:03:37.660Z,37.94
2016-08-16T10:04:37.687Z,37.02
2016-08-16T10:05:37.724Z,37.24
2016-08-16T10:06:37.762Z,36.85
2016-08-16T10:07:37.786Z,36.36
2016-08-16T10:08:37.826Z,36.36
2016-08-16T10:09:37.854Z,36.94
2016-08-16T10:10:37.887Z,38.15
2016-08-16T10:11:37.924Z,38.99
2016-08-16T10:13:37.992Z,40.89
2016-08-16T10:14:38.016Z,42.51
2016-08-16T10:15:38.054Z,42.2
2016-08-16T10:16:53.010Z,41.08
2016-08-16T10:17:38.120Z,40.79
2016-08-16T10:18:38.149Z,39.47
2016-08-16T10:19:38.188Z,40.05
2016-08-16T10:20:38.213Z,40.09
2016-08-16T10:21:38.247Z,37.7
2016-08-16T10:22:38.284Z,37.92
2016-08-16T10:23:38.310Z,37.8
2016-08-16T10:24:38.354Z,40.08
2016-08-16T10:25:38.384Z,40.05
2016-08-16T10:26:38.412Z,39.95
2016-08-16T10:27:38.446Z,40.15
2016-08-16T10:28:38.480Z,39.69
2016-08-16T10:29:38.513Z,40.08
2016-08-16T10:30:38.541Z,40.61
2016-08-16T10:31:38.585Z,41.47
2016-08-16T10:32:53.533Z,42.51
2016-08-16T10:33:38.643Z,43.15
2016-08-16T10:34:38.671Z,43.34
2016-08-16T10:35:38.711Z,43.75
2016-08-16T10:36:38.734Z,42.61
2016-08-16T10:37:38.766Z,41.35
2016-08-16T10:38:38.801Z,41.93
2016-08-16T10:39:38.838Z,42.59
2016-08-16T10:40:38.870Z,42.4
2016-08-16T10:41:38.900Z,42.1
2016-08-16T10:42:38.928Z,42.13
2016-08-16T10:43:38.961Z,42.71
2016-08-16T10:44:39.049Z,41.47
2016-08-16T10:45:39.025Z,41.08
2016-08-16T10:46:39.064Z,42.13
2016-08-16T10:48:54.058Z,42.49
2016-08-16T10:49:39.159Z,42.9
2016-08-16T10:50:39.190Z,42.41
2016-08-16T10:51:39.918Z,42.51
2016-08-16T10:52:39.256Z,43.73
2016-08-16T10:53:39.285Z,42.68
2016-08-16T10:54:39.324Z,43.46
2016-08-16T10:55:39.355Z,42.88
2016-08-16T10:56:39.380Z,42.59
2016-08-16T10:57:39.407Z,42.32
2016-08-16T10:58:39.441Z,42.61
2016-08-16T10:59:39.483Z,43.38
2016-08-16T11:00:39.503Z,42.32
2016-08-16T11:01:39.536Z,42.51
2016-08-16T11:02:39.565Z,42.41
2016-08-16T11:03:39.598Z,43.58
2016-08-16T11:04:54.556Z,42.8
2016-08-16T11:05:39.669Z,42.71
2016-08-16T11:06:39.692Z,42.41
2016-08-16T11:07:39.728Z,41.47
2016-08-16T11:08:39.759Z,40.79
2016-08-16T11:09:39.791Z,41.76
2016-08-16T11:10:39.821Z,40.71
2016-08-16T11:11:39.854Z,40.69
2016-08-16T11:12:39.878Z,41.25
2016-08-16T11:13:39.912Z,41.93
2016-08-16T11:14:39.946Z,41.27
2016-08-16T11:15:39.977Z,40.89
2016-08-16T11:16:40.005Z,41.08
2016-08-16T11:17:40.038Z,40.69
2016-08-16T11:18:40.068Z,41.66
2016-08-16T11:19:55.028Z,42.49
2016-08-16T11:20:40.135Z,42.2
2016-08-16T11:21:40.168Z,42.86
2016-08-16T11:22:40.193Z,43.05
2016-08-16T11:23:40.226Z,42.76
2016-08-16T11:24:40.261Z,42.18
2016-08-16T11:25:40.289Z,42.16
2016-08-16T11:26:40.315Z,43.51
2016-08-16T11:27:40.356Z,43.51
2016-08-16T11:28:40.381Z,43.34
2016-08-16T11:29:40.413Z,43.13
2016-08-16T11:30:40.444Z,43.8
2016-08-16T11:31:40.472Z,43.4
2016-08-16T11:32:40.503Z,43.23
2016-08-16T11:33:40.532Z,44.19
2016-08-16T11:34:40.567Z,43.15
2016-08-16T11:35:40.599Z,42.66
2016-08-16T11:37:40.652Z,43.05
2016-08-16T11:38:40.689Z,42.28
2016-08-16T11:39:40.713Z,42.4
2016-08-16T11:40:40.748Z,40.86
2016-08-16T11:41:40.776Z,40
2016-08-16T11:42:40.814Z,38.96
2016-08-16T11:43:40.840Z,41.39
2016-08-16T11:44:40.873Z,40.25
2016-08-16T11:45:40.903Z,37.94
2016-08-16T11:46:40.928Z,38.99
2016-08-16T11:47:40.958Z,40.11
2016-08-16T11:48:40.990Z,40.65
2016-08-16T11:49:41.020Z,42.08
2016-08-16T11:50:41.053Z,42.35
2016-08-16T11:51:56.010Z,41.5
2016-08-16T11:52:41.118Z,41.41
2016-08-16T11:53:41.145Z,41.89
2016-08-16T11:55:41.205Z,41.52
2016-08-16T11:56:41.238Z,41.6
2016-08-16T11:57:41.267Z,41.79
2016-08-16T11:58:41.297Z,41.24
2016-08-16T11:59:41.332Z,41.31
2016-08-16T12:00:41.364Z,40.26
2016-08-16T12:01:41.388Z,39.97
2016-08-16T12:02:41.421Z,39.69
2016-08-16T12:04:41.484Z,40
2016-08-16T12:05:41.516Z,40
2016-08-16T12:07:56.496Z,38.39
2016-08-16T12:09:41.639Z,38.09
2016-08-16T12:10:41.664Z,39.06
2016-08-16T12:11:41.693Z,38.12
2016-08-16T12:12:41.726Z,38.68
2016-08-16T12:13:41.798Z,39.43
2016-08-16T12:14:41.783Z,40.11
2016-08-16T12:15:41.818Z,40.77
2016-08-16T12:16:41.850Z,40.67
2016-08-16T12:17:41.875Z,39.9
2016-08-16T12:18:42.059Z,39.7
2016-08-16T12:19:41.938Z,40.19
2016-08-16T12:20:41.966Z,40.26
2016-08-16T12:21:42.003Z,40.34
2016-08-16T12:22:42.036Z,40.46
2016-08-16T12:23:56.986Z,40.56
2016-08-16T12:24:42.095Z,39.88
2016-08-16T12:25:42.128Z,39.78
2016-08-16T12:26:42.156Z,40.36
2016-08-16T12:27:42.186Z,41.6
2016-08-16T12:28:42.216Z,40.56
2016-08-16T12:29:42.242Z,39.78
2016-08-16T12:30:42.275Z,39.7
2016-08-16T12:31:42.309Z,39.51
2016-08-16T12:32:42.336Z,39.41
2016-08-16T12:33:43.071Z,39.53
2016-08-16T12:34:42.398Z,40.48
2016-08-16T12:35:42.427Z,41.04
2016-08-16T12:36:42.456Z,41.33
2016-08-16T12:37:42.488Z,41.99
2016-08-16T12:38:42.521Z,42.55
2016-08-16T12:39:57.476Z,43.1
2016-08-16T12:40:42.587Z,43.49
2016-08-16T12:41:42.612Z,43.68
2016-08-16T12:42:42.647Z,41.77
2016-08-16T12:43:42.678Z,42.07
2016-08-16T12:44:42.702Z,41.5
2016-08-16T12:45:42.731Z,40.83
2016-08-16T12:46:42.767Z,40.25
2016-08-16T12:47:42.798Z,40.17
2016-08-16T12:48:42.827Z,39.59
2016-08-16T12:49:42.855Z,39.49
2016-08-16T12:50:42.887Z,39.69
2016-08-16T12:52:42.956Z,38.45
2016-08-16T12:53:42.995Z,39.29
2016-08-16T12:54:57.935Z,39.11
2016-08-16T12:56:43.071Z,38.35
2016-08-16T12:57:43.103Z,38.15
2016-08-16T12:58:43.148Z,38.27
2016-08-16T12:59:43.166Z,37.98
2016-08-16T13:00:43.193Z,38.37
2016-08-16T13:01:43.227Z,38.66
2016-08-16T13:02:43.255Z,37.51
2016-08-16T13:03:43.286Z,38
2016-08-16T13:04:43.317Z,38.37
2016-08-16T13:06:43.378Z,37.96
2016-08-16T13:07:43.405Z,38.95
2016-08-16T13:08:43.435Z,39.04
2016-08-16T13:09:43.471Z,39.78
2016-08-16T13:10:43.494Z,40.17
2016-08-16T13:11:43.549Z,40.84
2016-08-16T13:12:43.562Z,41.04
2016-08-16T13:13:43.611Z,41.21
2016-08-16T13:14:43.617Z,40.36
2016-08-16T13:15:43.646Z,40.07
2016-08-16T13:16:43.674Z,40.17
2016-08-16T13:17:43.704Z,39.9
2016-08-16T13:18:43.740Z,40.58
2016-08-16T13:19:43.772Z,40.28
2016-08-16T13:20:43.796Z,40.26
2016-08-16T13:21:43.841Z,40.48
2016-08-16T13:22:43.860Z,40.84
2016-08-16T13:23:43.905Z,41.41
2016-08-16T13:25:43.952Z,42.66
2016-08-16T13:26:58.905Z,42.37
2016-08-16T13:27:44.012Z,41.41
2016-08-16T13:28:44.038Z,41.79
2016-08-16T13:29:44.074Z,41.7
2016-08-16T13:30:44.104Z,42.47
2016-08-16T13:31:44.130Z,41.79
2016-08-16T13:32:44.161Z,40.92
2016-08-16T13:33:44.192Z,41.7